createdAt,value
2019-03-18T00:00:41.171Z,5.51
2019-03-18T00:01:41.142Z,5.42
2019-03-18T00:02:41.121Z,5.42
2019-03-18T00:03:41.098Z,5.43
2019-03-18T00:04:41.074Z,5.31
2019-03-18T00:05:41.059Z,5.48
2019-03-18T00:06:41.036Z,5.31
2019-03-18T00:07:41.009Z,5.36
2019-03-18T00:08:40.985Z,5.40
2019-03-18T00:09:40.959Z,5.28
2019-03-18T00:10:40.939Z,5.28
2019-03-18T00:11:40.919Z,5.28
2019-03-18T00:12:40.895Z,5.25
2019-03-18T00:13:40.869Z,5.38
2019-03-18T00:14:40.849Z,5.35
2019-03-18T00:15:40.825Z,5.30
2019-03-18T00:16:40.801Z,5.22
2019-03-18T00:18:40.761Z,5.24
2019-03-18T00:19:42.831Z,5.21
2019-03-18T00:20:40.708Z,5.15
2019-03-18T00:21:40.686Z,5.25
2019-03-18T00:22:40.662Z,5.21
2019-03-18T00:23:40.639Z,5.22
2019-03-18T00:24:40.617Z,5.24
2019-03-18T00:25:40.596Z,5.24
2019-03-18T00:26:40.572Z,5.15
2019-03-18T00:27:40.555Z,5.22
2019-03-18T00:28:40.525Z,5.24
2019-03-18T00:29:40.508Z,5.15
2019-03-18T00:30:40.478Z,5.17
2019-03-18T00:31:40.463Z,5.15
2019-03-18T00:32:40.437Z,5.12
2019-03-18T00:33:40.414Z,5.15
2019-03-18T00:34:40.399Z,5.13
2019-03-18T00:35:40.367Z,5.12
2019-03-18T00:36:40.347Z,5.13
2019-03-18T00:37:40.320Z,5.17
2019-03-18T00:38:40.350Z,5.27
2019-03-18T00:39:40.276Z,5.27
2019-03-18T00:40:40.261Z,5.24
2019-03-18T00:41:40.229Z,5.22
2019-03-18T00:42:40.204Z,5.17
2019-03-18T00:43:40.186Z,5.25
2019-03-18T00:44:40.158Z,5.17
2019-03-18T00:45:40.565Z,5.20
2019-03-18T00:46:40.116Z,5.20
2019-03-18T00:47:40.090Z,5.13
2019-03-18T00:48:40.068Z,5.10
2019-03-18T00:49:40.046Z,5.25
2019-03-18T00:50:40.021Z,5.25
2019-03-18T00:51:39.998Z,5.33
2019-03-18T00:52:39.984Z,5.25
2019-03-18T00:53:39.952Z,5.28
2019-03-18T00:54:39.926Z,5.28
2019-03-18T00:55:39.909Z,5.33
2019-03-18T00:56:39.881Z,5.33
2019-03-18T00:57:39.863Z,5.27
2019-03-18T00:58:39.838Z,5.30
2019-03-18T00:59:39.814Z,5.27
2019-03-18T01:00:39.792Z,5.22
2019-03-18T01:01:39.775Z,5.18
2019-03-18T01:02:39.752Z,5.22
2019-03-18T01:03:39.726Z,5.22
2019-03-18T01:04:39.696Z,5.24
2019-03-18T01:05:39.676Z,5.24
2019-03-18T01:06:39.657Z,5.21
2019-03-18T01:07:39.637Z,5.17
2019-03-18T01:08:39.606Z,5.18
2019-03-18T01:09:39.583Z,5.25
2019-03-18T01:10:39.569Z,5.15
2019-03-18T01:11:39.545Z,5.27
2019-03-18T01:12:39.525Z,5.31
2019-03-18T01:13:39.493Z,5.17
2019-03-18T01:14:39.467Z,5.18
2019-03-18T01:15:39.446Z,5.24
2019-03-18T01:16:39.424Z,5.24
2019-03-18T01:17:39.681Z,5.21
2019-03-18T01:18:39.386Z,5.21
2019-03-18T01:19:39.356Z,5.22
2019-03-18T01:20:39.336Z,5.20
2019-03-18T01:21:39.307Z,5.12
2019-03-18T01:22:39.283Z,5.18
2019-03-18T01:23:39.264Z,5.20
2019-03-18T01:24:39.238Z,5.13
2019-03-18T01:25:39.215Z,5.09
2019-03-18T01:26:39.195Z,5.04
2019-03-18T01:27:39.167Z,5.04
2019-03-18T01:28:39.154Z,5.17
2019-03-18T01:29:39.143Z,5.06
2019-03-18T01:30:39.100Z,5.15
2019-03-18T01:31:39.081Z,5.10
2019-03-18T01:32:39.064Z,5.03
2019-03-18T01:33:39.033Z,5.12
2019-03-18T01:34:39.005Z,5.04
2019-03-18T01:35:40.023Z,5.07
2019-03-18T01:36:38.963Z,5.09
2019-03-18T01:37:38.944Z,5.12
2019-03-18T01:38:38.915Z,5.10
2019-03-18T01:39:38.893Z,5.10
2019-03-18T01:40:38.879Z,5.03
2019-03-18T01:41:38.856Z,5.06
2019-03-18T01:42:38.910Z,5.09
2019-03-18T01:43:38.799Z,5.07
2019-03-18T01:44:38.778Z,5.10
2019-03-18T01:45:40.924Z,5.04
2019-03-18T01:46:38.731Z,4.99
2019-03-18T01:47:38.711Z,5.13
2019-03-18T01:48:38.689Z,5.04
2019-03-18T01:49:38.663Z,5.09
2019-03-18T01:50:38.637Z,5.07
2019-03-18T01:51:38.618Z,5.04
2019-03-18T01:52:38.595Z,5.10
2019-03-18T01:53:38.569Z,4.97
2019-03-18T01:54:38.626Z,5.00
2019-03-18T01:55:38.524Z,4.97
2019-03-18T01:56:38.501Z,5.10
2019-03-18T01:57:38.483Z,5.06
2019-03-18T01:58:38.457Z,5.10
2019-03-18T01:59:38.431Z,5.12
2019-03-18T02:00:38.411Z,4.99
2019-03-18T02:01:38.392Z,5.03
2019-03-18T02:02:38.362Z,5.07
2019-03-18T02:03:38.340Z,5.00
2019-03-18T02:04:38.318Z,4.96
2019-03-18T02:05:38.343Z,5.03
2019-03-18T02:06:38.269Z,5.03
2019-03-18T02:07:38.255Z,5.00
2019-03-18T02:08:38.224Z,4.97
2019-03-18T02:09:38.199Z,4.99
2019-03-18T02:10:38.177Z,4.94
2019-03-18T02:11:38.154Z,5.03
2019-03-18T02:12:38.131Z,5.00
2019-03-18T02:13:38.105Z,5.00
2019-03-18T02:14:38.089Z,5.00
2019-03-18T02:15:38.065Z,5.07
2019-03-18T02:16:38.037Z,5.04
2019-03-18T02:17:38.019Z,5.00
2019-03-18T02:18:37.993Z,5.02
2019-03-18T02:19:37.969Z,4.97
2019-03-18T02:20:37.944Z,4.99
2019-03-18T02:21:37.921Z,4.97
2019-03-18T02:22:37.896Z,5.03
2019-03-18T02:23:37.876Z,5.03
2019-03-18T02:24:37.858Z,5.13
2019-03-18T02:25:37.830Z,5.12
2019-03-18T02:26:37.811Z,5.10
2019-03-18T02:27:37.784Z,5.12
2019-03-18T02:28:37.762Z,5.10
2019-03-18T02:29:37.735Z,5.15
2019-03-18T02:30:37.718Z,5.02
2019-03-18T02:31:37.694Z,5.07
2019-03-18T02:32:37.667Z,5.12
2019-03-18T02:33:37.645Z,5.12
2019-03-18T02:34:37.621Z,5.04
2019-03-18T02:35:37.654Z,5.06
2019-03-18T02:36:37.572Z,4.99
2019-03-18T02:37:37.553Z,5.06
2019-03-18T02:38:37.526Z,5.06
2019-03-18T02:39:37.501Z,4.97
2019-03-18T02:40:37.480Z,5.12
2019-03-18T02:41:37.461Z,5.07
2019-03-18T02:42:37.432Z,5.06
2019-03-18T02:43:37.421Z,5.09
2019-03-18T02:44:37.397Z,5.03
2019-03-18T02:45:37.382Z,5.12
2019-03-18T02:46:37.350Z,5.07
2019-03-18T02:47:37.337Z,5.12
2019-03-18T02:48:37.321Z,5.10
2019-03-18T02:49:37.312Z,4.99
2019-03-18T02:50:37.252Z,5.10
2019-03-18T02:51:37.226Z,5.04
2019-03-18T02:52:37.204Z,5.06
2019-03-18T02:53:37.189Z,4.96
2019-03-18T02:54:37.161Z,5.07
2019-03-18T02:55:37.134Z,5.00
2019-03-18T02:56:37.120Z,5.04
2019-03-18T02:57:37.096Z,5.03
2019-03-18T02:58:37.066Z,5.00
2019-03-18T02:59:37.043Z,5.00
2019-03-18T03:00:37.020Z,5.00
2019-03-18T03:01:36.999Z,5.02
2019-03-18T03:02:36.970Z,5.04
2019-03-18T03:03:37.424Z,4.88
2019-03-18T03:04:36.928Z,4.89
2019-03-18T03:05:36.906Z,4.86
2019-03-18T03:06:36.879Z,4.92
2019-03-18T03:07:36.856Z,4.89
2019-03-18T03:08:36.830Z,4.85
2019-03-18T03:09:36.809Z,4.86
2019-03-18T03:10:36.786Z,4.91
2019-03-18T03:11:36.760Z,4.91
2019-03-18T03:12:36.736Z,4.92
2019-03-18T03:13:36.715Z,4.88
2019-03-18T03:14:36.699Z,4.91
2019-03-18T03:15:36.667Z,4.89
2019-03-18T03:16:36.648Z,4.84
2019-03-18T03:17:36.638Z,4.84
2019-03-18T03:18:36.603Z,4.88
2019-03-18T03:19:36.589Z,4.97
2019-03-18T03:20:36.568Z,5.03
2019-03-18T03:21:36.544Z,4.97
2019-03-18T03:22:36.511Z,5.02
2019-03-18T03:23:36.483Z,4.96
2019-03-18T03:24:36.460Z,4.88
2019-03-18T03:25:36.439Z,5.00
2019-03-18T03:26:36.413Z,4.94
2019-03-18T03:27:36.395Z,4.92
2019-03-18T03:28:36.370Z,4.86
2019-03-18T03:29:36.347Z,4.85
2019-03-18T03:30:36.325Z,4.92
2019-03-18T03:31:36.318Z,4.92
2019-03-18T03:32:36.336Z,4.85
2019-03-18T03:33:36.309Z,4.91
2019-03-18T03:34:36.242Z,4.84
2019-03-18T03:35:36.205Z,4.97
2019-03-18T03:36:36.183Z,4.86
2019-03-18T03:37:36.156Z,4.89
2019-03-18T03:38:36.138Z,4.89
2019-03-18T03:39:36.109Z,4.92
2019-03-18T03:40:36.087Z,4.85
2019-03-18T03:41:36.069Z,4.89
2019-03-18T03:42:36.046Z,4.91
2019-03-18T03:43:36.018Z,4.86
2019-03-18T03:44:35.998Z,4.89
2019-03-18T03:45:35.974Z,4.85
2019-03-18T03:46:42.828Z,4.84
2019-03-18T03:47:35.932Z,4.84
2019-03-18T03:48:35.902Z,4.89
2019-03-18T03:49:35.879Z,4.85
2019-03-18T03:50:35.860Z,4.86
2019-03-18T03:51:35.831Z,4.85
2019-03-18T03:52:35.812Z,4.80
2019-03-18T03:53:35.794Z,4.80
2019-03-18T03:54:35.756Z,4.77
2019-03-18T03:55:35.742Z,4.82
2019-03-18T03:56:35.744Z,4.80
2019-03-18T03:57:35.693Z,4.75
2019-03-18T03:58:35.672Z,4.84
2019-03-18T03:59:35.649Z,4.77
2019-03-18T04:00:35.621Z,4.82
2019-03-18T04:01:35.606Z,4.78
2019-03-18T04:02:35.585Z,4.82
2019-03-18T04:03:38.684Z,4.80
2019-03-18T04:04:35.538Z,4.80
2019-03-18T04:05:35.515Z,4.86
2019-03-18T04:06:35.483Z,4.84
2019-03-18T04:07:35.459Z,4.80
2019-03-18T04:08:35.442Z,4.77
2019-03-18T04:09:35.419Z,4.82
2019-03-18T04:10:35.387Z,4.82
2019-03-18T04:11:35.411Z,4.67
2019-03-18T04:12:35.347Z,4.63
2019-03-18T04:13:35.324Z,4.67
2019-03-18T04:14:35.299Z,4.66
2019-03-18T04:15:35.273Z,4.66
2019-03-18T04:16:35.252Z,4.63
2019-03-18T04:17:35.234Z,4.69
2019-03-18T04:18:35.203Z,4.70
2019-03-18T04:19:35.188Z,4.63
2019-03-18T04:20:35.158Z,4.67
2019-03-18T04:21:35.137Z,4.67
2019-03-18T04:22:35.142Z,4.59
2019-03-18T04:23:35.088Z,4.54
2019-03-18T04:24:35.065Z,4.54
2019-03-18T04:25:35.043Z,4.62
2019-03-18T04:26:35.018Z,4.65
2019-03-18T04:27:35.000Z,4.55
2019-03-18T04:28:34.975Z,4.70
2019-03-18T04:29:34.948Z,4.59
2019-03-18T04:30:34.923Z,4.63
2019-03-18T04:31:34.908Z,4.73
2019-03-18T04:32:34.882Z,4.78
2019-03-18T04:33:34.855Z,4.70
2019-03-18T04:34:34.832Z,4.80
2019-03-18T04:35:34.811Z,4.78
2019-03-18T04:36:34.786Z,4.78
2019-03-18T04:37:34.765Z,4.77
2019-03-18T04:38:34.743Z,4.78
2019-03-18T04:39:34.714Z,4.82
2019-03-18T04:40:34.690Z,4.78
2019-03-18T04:41:34.668Z,4.80
2019-03-18T04:42:34.646Z,4.72
2019-03-18T04:43:34.624Z,4.73
2019-03-18T04:44:34.597Z,4.77
2019-03-18T04:45:34.578Z,4.73
2019-03-18T04:46:34.551Z,4.69
2019-03-18T04:47:34.532Z,4.63
2019-03-18T04:48:34.504Z,4.65
2019-03-18T04:49:34.484Z,4.67
2019-03-18T04:50:34.457Z,4.65
2019-03-18T04:51:34.438Z,4.62
2019-03-18T04:52:34.415Z,4.72
2019-03-18T04:53:34.390Z,4.72
2019-03-18T04:54:34.369Z,4.77
2019-03-18T04:55:34.343Z,4.84
2019-03-18T04:56:34.319Z,4.85
2019-03-18T04:57:34.297Z,4.80
2019-03-18T04:58:34.270Z,4.78
2019-03-18T04:59:34.249Z,4.84
2019-03-18T05:00:34.227Z,4.86
2019-03-18T05:01:34.205Z,4.84
2019-03-18T05:02:34.179Z,4.91
2019-03-18T05:03:34.152Z,4.92
2019-03-18T05:04:34.133Z,4.96
2019-03-18T05:05:34.110Z,4.94
2019-03-18T05:06:34.089Z,4.86
2019-03-18T05:07:34.061Z,4.89
2019-03-18T05:08:34.041Z,4.89
2019-03-18T05:09:34.016Z,4.89
2019-03-18T05:10:33.993Z,4.84
2019-03-18T05:11:33.969Z,4.85
2019-03-18T05:12:33.952Z,4.96
2019-03-18T05:13:33.984Z,4.96
2019-03-18T05:14:33.898Z,5.02
2019-03-18T05:15:33.889Z,5.00
2019-03-18T05:16:33.855Z,5.04
2019-03-18T05:17:33.826Z,5.03
2019-03-18T05:18:36.519Z,5.04
2019-03-18T05:19:33.783Z,5.12
2019-03-18T05:20:33.764Z,5.10
2019-03-18T05:21:33.737Z,5.09
2019-03-18T05:22:33.712Z,5.09
2019-03-18T05:23:33.686Z,5.20
2019-03-18T05:24:33.671Z,5.03
2019-03-18T05:25:33.651Z,5.17
2019-03-18T05:26:33.628Z,5.18
2019-03-18T05:27:33.603Z,5.21
2019-03-18T05:28:33.575Z,5.20
2019-03-18T05:29:33.552Z,5.13
2019-03-18T05:30:33.531Z,5.20
2019-03-18T05:31:33.506Z,5.17
2019-03-18T05:32:33.480Z,5.24
2019-03-18T05:33:33.458Z,5.24
2019-03-18T05:34:33.438Z,5.21
2019-03-18T05:35:33.416Z,5.20
2019-03-18T05:36:33.393Z,5.22
2019-03-18T05:37:33.367Z,5.22
2019-03-18T05:38:33.340Z,5.22
2019-03-18T05:39:33.318Z,5.18
2019-03-18T05:40:33.297Z,5.24
2019-03-18T05:41:33.273Z,5.20
2019-03-18T05:42:33.243Z,5.10
2019-03-18T05:43:33.230Z,5.24
2019-03-18T05:44:33.204Z,5.21
2019-03-18T05:45:33.178Z,5.27
2019-03-18T05:46:33.158Z,5.25
2019-03-18T05:47:39.146Z,5.20
2019-03-18T05:48:33.110Z,5.21
2019-03-18T05:49:33.090Z,5.15
2019-03-18T05:50:33.065Z,5.17
2019-03-18T05:51:33.038Z,5.27
2019-03-18T05:52:33.016Z,5.22
2019-03-18T05:53:33.029Z,5.20
2019-03-18T05:54:32.977Z,5.20
2019-03-18T05:55:32.950Z,5.24
2019-03-18T05:56:32.924Z,5.18
2019-03-18T05:57:32.904Z,5.18
2019-03-18T05:58:32.878Z,5.22
2019-03-18T05:59:32.855Z,5.22
2019-03-18T06:00:32.832Z,5.21
2019-03-18T06:01:32.827Z,5.28
2019-03-18T06:02:32.790Z,5.24
2019-03-18T06:03:32.761Z,5.31
2019-03-18T06:04:32.740Z,5.30
2019-03-18T06:05:32.723Z,5.28
2019-03-18T06:06:32.695Z,5.25
2019-03-18T06:07:32.678Z,5.25
2019-03-18T06:08:32.652Z,5.24
2019-03-18T06:09:32.625Z,5.22
2019-03-18T06:10:32.615Z,5.28
2019-03-18T06:11:32.580Z,5.27
2019-03-18T06:12:32.557Z,5.25
2019-03-18T06:13:32.532Z,5.27
2019-03-18T06:14:32.506Z,5.22
2019-03-18T06:15:32.482Z,5.28
2019-03-18T06:16:32.464Z,5.18
2019-03-18T06:17:32.445Z,5.27
2019-03-18T06:18:32.416Z,5.17
2019-03-18T06:19:32.389Z,5.31
2019-03-18T06:20:32.373Z,5.22
2019-03-18T06:21:32.348Z,5.17
2019-03-18T06:22:32.320Z,5.18
2019-03-18T06:23:32.301Z,5.22
2019-03-18T06:24:32.278Z,5.22
2019-03-18T06:25:32.324Z,5.27
2019-03-18T06:26:32.237Z,5.33
2019-03-18T06:27:32.210Z,5.28
2019-03-18T06:28:32.192Z,5.25
2019-03-18T06:29:32.162Z,5.33
2019-03-18T06:30:32.136Z,5.35
2019-03-18T06:31:32.118Z,5.31
2019-03-18T06:32:32.100Z,5.35
2019-03-18T06:33:32.073Z,5.36
2019-03-18T06:34:32.044Z,5.33
2019-03-18T06:35:32.033Z,5.38
2019-03-18T06:36:32.003Z,5.45
2019-03-18T06:37:31.981Z,5.43
2019-03-18T06:38:31.960Z,5.45
2019-03-18T06:39:31.929Z,5.45
2019-03-18T06:40:31.907Z,5.39
2019-03-18T06:41:31.887Z,5.31
2019-03-18T06:42:31.861Z,5.39
2019-03-18T06:43:31.836Z,5.46
2019-03-18T06:44:31.815Z,5.51
2019-03-18T06:45:31.802Z,5.49
2019-03-18T06:46:31.777Z,5.53
2019-03-18T06:47:31.752Z,5.53
2019-03-18T06:48:31.725Z,5.61
2019-03-18T06:49:31.698Z,5.58
2019-03-18T06:50:31.678Z,5.64
2019-03-18T06:51:31.653Z,5.67
2019-03-18T06:52:31.633Z,5.71
2019-03-18T06:53:31.613Z,5.65
2019-03-18T06:54:31.608Z,5.68
2019-03-18T06:55:31.560Z,5.76
2019-03-18T06:56:31.544Z,5.68
2019-03-18T06:57:31.517Z,5.78
2019-03-18T06:58:31.495Z,5.76
2019-03-18T06:59:31.467Z,5.78
2019-03-18T07:00:31.449Z,5.76
2019-03-18T07:01:31.425Z,5.78
2019-03-18T07:02:31.401Z,5.81
2019-03-18T07:03:31.381Z,5.83
2019-03-18T07:04:31.355Z,5.79
2019-03-18T07:05:31.337Z,5.81
2019-03-18T07:06:31.310Z,5.82
2019-03-18T07:07:31.291Z,5.79
2019-03-18T07:08:31.265Z,5.81
2019-03-18T07:09:31.241Z,5.81
2019-03-18T07:10:31.221Z,5.93
2019-03-18T07:11:31.197Z,5.78
2019-03-18T07:12:31.175Z,5.96
2019-03-18T07:13:31.151Z,5.93
2019-03-18T07:14:31.131Z,5.99
2019-03-18T07:15:31.117Z,6.00
2019-03-18T07:16:31.084Z,6.06
2019-03-18T07:17:31.061Z,6.04
2019-03-18T07:18:31.037Z,6.12
2019-03-18T07:19:31.015Z,6.17
2019-03-18T07:20:30.994Z,6.27
2019-03-18T07:21:30.971Z,6.22
2019-03-18T07:22:30.944Z,6.38
2019-03-18T07:23:30.918Z,6.52
2019-03-18T07:24:30.899Z,6.52
2019-03-18T07:25:30.877Z,6.62
2019-03-18T07:26:30.853Z,6.74
2019-03-18T07:27:30.835Z,6.77
2019-03-18T07:28:30.808Z,6.77
2019-03-18T07:29:30.789Z,6.71
2019-03-18T07:30:30.762Z,6.74
2019-03-18T07:31:30.741Z,6.88
2019-03-18T07:32:30.719Z,6.89
2019-03-18T07:33:30.706Z,6.73
2019-03-18T07:34:30.675Z,6.69
2019-03-18T07:35:30.651Z,6.64
2019-03-18T07:36:30.626Z,6.64
2019-03-18T07:37:30.610Z,6.58
2019-03-18T07:38:30.586Z,6.70
2019-03-18T07:39:30.562Z,6.67
2019-03-18T07:40:30.547Z,6.62
2019-03-18T07:41:30.522Z,6.58
2019-03-18T07:42:30.495Z,6.58
2019-03-18T07:43:30.486Z,6.64
2019-03-18T07:44:30.449Z,6.74
2019-03-18T07:45:30.496Z,6.77
2019-03-18T07:46:30.403Z,6.84
2019-03-18T07:47:30.383Z,6.88
2019-03-18T07:48:31.569Z,6.99
2019-03-18T07:49:30.338Z,7.03
2019-03-18T07:50:30.311Z,7.07
2019-03-18T07:51:30.297Z,7.10
2019-03-18T07:52:30.271Z,7.15
2019-03-18T07:53:30.255Z,7.10
2019-03-18T07:54:32.999Z,7.25
2019-03-18T07:55:30.205Z,7.10
2019-03-18T07:56:30.182Z,7.05
2019-03-18T07:57:32.645Z,7.07
2019-03-18T07:58:30.143Z,7.05
2019-03-18T07:59:30.133Z,6.99
2019-03-18T08:00:30.095Z,7.02
2019-03-18T08:01:30.073Z,6.95
2019-03-18T08:02:30.072Z,7.07
2019-03-18T08:03:30.026Z,6.92
2019-03-18T08:04:37.439Z,6.91
2019-03-18T08:05:29.983Z,6.97
2019-03-18T08:06:29.958Z,6.98
2019-03-18T08:07:29.941Z,6.99
2019-03-18T08:08:29.962Z,7.06
2019-03-18T08:09:29.898Z,7.02
2019-03-18T08:10:29.871Z,7.03
2019-03-18T08:11:29.846Z,6.97
2019-03-18T08:12:29.828Z,6.91
2019-03-18T08:13:29.812Z,6.85
2019-03-18T08:14:29.781Z,6.84
2019-03-18T08:15:29.759Z,6.74
2019-03-18T08:16:29.737Z,6.74
2019-03-18T08:17:29.731Z,6.76
2019-03-18T08:18:29.693Z,6.71
2019-03-18T08:19:29.669Z,6.77
2019-03-18T08:20:29.656Z,6.77
2019-03-18T08:21:29.630Z,6.79
2019-03-18T08:22:29.604Z,6.69
2019-03-18T08:23:29.581Z,6.71
2019-03-18T08:24:29.565Z,6.81
2019-03-18T08:25:29.548Z,6.74
2019-03-18T08:26:29.518Z,6.74
2019-03-18T08:27:29.496Z,6.70
2019-03-18T08:28:29.541Z,6.62
2019-03-18T08:29:29.455Z,6.74
2019-03-18T08:30:29.428Z,6.64
2019-03-18T08:31:29.420Z,6.71
2019-03-18T08:32:29.384Z,6.73
2019-03-18T08:33:29.364Z,6.76
2019-03-18T08:34:29.343Z,6.73
2019-03-18T08:35:29.317Z,6.71
2019-03-18T08:36:29.297Z,6.79
2019-03-18T08:37:29.279Z,6.73
2019-03-18T08:38:29.256Z,6.71
2019-03-18T08:39:29.230Z,6.79
2019-03-18T08:40:29.214Z,6.69
2019-03-18T08:41:29.184Z,6.74
2019-03-18T08:42:29.163Z,6.74
2019-03-18T08:43:29.138Z,6.74
2019-03-18T08:44:29.118Z,6.73
2019-03-18T08:45:29.095Z,6.92
2019-03-18T08:46:29.072Z,6.89
2019-03-18T08:47:29.050Z,6.88
2019-03-18T08:48:29.032Z,7.02
2019-03-18T08:49:29.006Z,7.12
2019-03-18T08:50:28.985Z,7.34
2019-03-18T08:51:28.970Z,7.40
2019-03-18T08:52:28.933Z,7.28
2019-03-18T08:53:28.914Z,7.31
2019-03-18T08:54:28.894Z,7.25
2019-03-18T08:55:28.872Z,7.13
2019-03-18T08:56:29.719Z,7.15
2019-03-18T08:57:28.834Z,7.16
2019-03-18T08:58:28.810Z,7.12
2019-03-18T08:59:28.788Z,7.23
2019-03-18T09:00:28.760Z,7.27
2019-03-18T09:01:28.738Z,7.27
2019-03-18T09:02:28.718Z,7.21
2019-03-18T09:03:28.698Z,7.28
2019-03-18T09:04:28.671Z,7.27
2019-03-18T09:05:28.650Z,7.20
2019-03-18T09:06:30.317Z,7.34
2019-03-18T09:07:28.614Z,7.37
2019-03-18T09:08:28.585Z,7.40
2019-03-18T09:09:28.560Z,7.42
2019-03-18T09:10:28.537Z,7.35
2019-03-18T09:11:28.525Z,7.35
2019-03-18T09:12:28.497Z,7.40
2019-03-18T09:13:28.477Z,7.49
2019-03-18T09:14:28.452Z,7.48
2019-03-18T09:15:28.433Z,7.34
2019-03-18T09:16:28.406Z,7.42
2019-03-18T09:17:28.388Z,7.37
2019-03-18T09:18:28.366Z,7.42
2019-03-18T09:19:28.344Z,7.39
2019-03-18T09:20:28.323Z,7.31
2019-03-18T09:21:28.300Z,7.31
2019-03-18T09:22:28.281Z,7.27
2019-03-18T09:23:28.255Z,7.32
2019-03-18T09:24:28.231Z,7.23
2019-03-18T09:25:28.208Z,7.27
2019-03-18T09:26:28.188Z,7.37
2019-03-18T09:27:28.169Z,7.32
2019-03-18T09:28:28.145Z,7.35
2019-03-18T09:29:28.126Z,7.39
2019-03-18T09:30:28.102Z,7.42
2019-03-18T09:31:28.244Z,7.34
2019-03-18T09:32:28.056Z,7.42
2019-03-18T09:33:28.035Z,7.37
2019-03-18T09:34:28.014Z,7.48
2019-03-18T09:35:27.987Z,7.50
2019-03-18T09:36:27.969Z,7.48
2019-03-18T09:37:27.955Z,7.50
2019-03-18T09:38:27.926Z,7.48
2019-03-18T09:39:27.903Z,7.61
2019-03-18T09:40:29.385Z,7.83
2019-03-18T09:41:27.855Z,8.05
2019-03-18T09:42:27.835Z,8.20
2019-03-18T09:43:27.818Z,8.20
2019-03-18T09:44:27.825Z,8.22
2019-03-18T09:45:27.771Z,8.10
2019-03-18T09:46:27.747Z,8.16
2019-03-18T09:47:27.731Z,8.18
2019-03-18T09:48:27.710Z,8.16
2019-03-18T09:49:27.687Z,8.22
2019-03-18T09:50:27.661Z,8.23
2019-03-18T09:51:27.641Z,8.19
2019-03-18T09:52:27.617Z,8.23
2019-03-18T09:53:27.599Z,8.22
2019-03-18T09:54:27.577Z,8.25
2019-03-18T09:55:27.555Z,8.22
2019-03-18T09:56:27.533Z,8.26
2019-03-18T09:57:27.509Z,8.23
2019-03-18T09:58:27.489Z,8.47
2019-03-18T09:59:27.467Z,8.44
2019-03-18T10:00:27.460Z,8.38
2019-03-18T10:01:27.425Z,8.45
2019-03-18T10:02:27.401Z,8.36
2019-03-18T10:03:27.403Z,8.40
2019-03-18T10:04:27.358Z,8.41
2019-03-18T10:05:27.341Z,8.22
2019-03-18T10:06:27.317Z,8.20
2019-03-18T10:07:27.294Z,8.20
2019-03-18T10:08:27.300Z,8.30
2019-03-18T10:09:27.255Z,8.26
2019-03-18T10:10:27.230Z,8.22
2019-03-18T10:11:27.213Z,8.12
2019-03-18T10:12:27.187Z,8.26
2019-03-18T10:13:27.175Z,8.25
2019-03-18T10:14:27.146Z,8.22
2019-03-18T10:15:27.123Z,8.23
2019-03-18T10:16:27.103Z,8.22
2019-03-18T10:17:27.080Z,8.28
2019-03-18T10:18:27.059Z,8.26
2019-03-18T10:19:33.341Z,8.41
2019-03-18T10:20:27.018Z,8.34
2019-03-18T10:21:26.995Z,8.37
2019-03-18T10:22:26.975Z,8.44
2019-03-18T10:23:26.961Z,8.37
2019-03-18T10:24:26.933Z,8.48
2019-03-18T10:25:26.913Z,8.41
2019-03-18T10:26:26.891Z,8.48
2019-03-18T10:27:26.869Z,8.47
2019-03-18T10:28:26.857Z,8.56
2019-03-18T10:29:26.822Z,8.55
2019-03-18T10:30:26.804Z,8.58
2019-03-18T10:31:26.780Z,8.61
2019-03-18T10:32:26.765Z,8.83
2019-03-18T10:33:26.738Z,9.05
2019-03-18T10:34:26.716Z,9.11
2019-03-18T10:35:26.701Z,9.15
2019-03-18T10:36:26.680Z,9.15
2019-03-18T10:37:26.654Z,9.15
2019-03-18T10:38:26.633Z,9.10
2019-03-18T10:39:26.613Z,8.92
2019-03-18T10:40:26.593Z,8.83
2019-03-18T10:41:26.575Z,8.84
2019-03-18T10:42:26.548Z,8.83
2019-03-18T10:43:26.532Z,8.83
2019-03-18T10:44:26.504Z,8.83
2019-03-18T10:45:26.530Z,8.95
2019-03-18T10:46:26.594Z,9.21
2019-03-18T10:47:26.456Z,9.46
2019-03-18T10:48:26.424Z,10.05
2019-03-18T10:49:26.405Z,10.44
2019-03-18T10:50:26.390Z,10.73
2019-03-18T10:51:26.360Z,10.76
2019-03-18T10:52:26.342Z,11.14
2019-03-18T10:53:26.324Z,11.47
2019-03-18T10:54:31.058Z,11.94
2019-03-18T10:55:26.279Z,12.20
2019-03-18T10:56:26.263Z,12.62
2019-03-18T10:57:26.242Z,12.86
2019-03-18T10:58:26.231Z,12.79
2019-03-18T10:59:26.208Z,12.71
2019-03-18T11:00:26.186Z,12.27
2019-03-18T11:01:26.174Z,12.19
2019-03-18T11:02:26.150Z,12.04
2019-03-18T11:03:26.130Z,12.20
2019-03-18T11:04:26.115Z,11.90
2019-03-18T11:05:26.098Z,11.88
2019-03-18T11:06:26.078Z,11.55
2019-03-18T11:07:26.060Z,11.32
2019-03-18T11:08:26.048Z,11.19
2019-03-18T11:09:26.025Z,11.40
2019-03-18T11:10:26.008Z,11.58
2019-03-18T11:11:26.002Z,11.43
2019-03-18T11:12:25.973Z,11.17
2019-03-18T11:13:25.961Z,10.71
2019-03-18T11:14:25.937Z,10.48
2019-03-18T11:15:25.922Z,10.29
2019-03-18T11:16:25.905Z,10.26
2019-03-18T11:17:25.891Z,10.18
2019-03-18T11:18:25.871Z,10.11
2019-03-18T11:19:25.853Z,10.17
2019-03-18T11:20:25.833Z,10.17
2019-03-18T11:21:25.811Z,10.30
2019-03-18T11:22:25.793Z,10.17
2019-03-18T11:23:25.788Z,10.15
2019-03-18T11:24:25.759Z,10.04
2019-03-18T11:25:25.740Z,10.01
2019-03-18T11:26:25.720Z,9.97
2019-03-18T11:27:25.707Z,9.97
2019-03-18T11:28:25.686Z,9.99
2019-03-18T11:29:25.677Z,9.90
2019-03-18T11:30:25.653Z,9.81
2019-03-18T11:31:25.681Z,9.74
2019-03-18T11:32:25.611Z,9.66
2019-03-18T11:33:28.309Z,9.61
2019-03-18T11:34:25.600Z,9.50
2019-03-18T11:35:25.556Z,9.47
2019-03-18T11:36:25.540Z,9.33
2019-03-18T11:38:43.101Z,9.35
2019-03-18T11:39:43.085Z,9.26
2019-03-18T11:40:43.061Z,9.10
2019-03-18T11:41:43.045Z,9.08
2019-03-18T11:42:43.025Z,9.11
2019-03-18T11:43:43.011Z,8.95
2019-03-18T11:44:42.988Z,8.91
2019-03-18T11:45:42.963Z,8.94
2019-03-18T11:46:42.946Z,9.14
2019-03-18T11:47:42.925Z,9.20
2019-03-18T11:48:42.908Z,9.39
2019-03-18T11:49:42.882Z,9.86
2019-03-18T11:50:42.869Z,10.26
2019-03-18T11:51:42.849Z,10.45
2019-03-18T11:52:42.827Z,10.82
2019-03-18T11:53:42.810Z,11.07
2019-03-18T11:54:42.787Z,11.17
2019-03-18T11:55:42.780Z,11.06
2019-03-18T11:56:42.751Z,11.32
2019-03-18T11:57:42.741Z,11.46
2019-03-18T11:58:42.717Z,11.76
2019-03-18T11:59:42.703Z,12.02
2019-03-18T12:00:42.680Z,12.24
2019-03-18T12:01:42.668Z,12.27
2019-03-18T12:02:42.645Z,12.24
2019-03-18T12:03:42.638Z,12.41
2019-03-18T12:04:42.607Z,12.37
2019-03-18T12:05:42.592Z,12.31
2019-03-18T12:06:42.582Z,12.04
2019-03-18T12:07:42.559Z,11.69
2019-03-18T12:08:42.543Z,11.46
2019-03-18T12:09:42.525Z,11.14
2019-03-18T12:10:42.513Z,11.04
2019-03-18T12:11:42.485Z,10.92
2019-03-18T12:12:42.472Z,10.79
2019-03-18T12:13:42.459Z,10.73
2019-03-18T12:14:42.437Z,10.63
2019-03-18T12:15:42.420Z,10.45
2019-03-18T12:16:42.407Z,10.36
2019-03-18T12:17:42.385Z,10.29
2019-03-18T12:18:42.369Z,10.26
2019-03-18T12:19:42.356Z,10.22
2019-03-18T12:20:42.331Z,10.02
2019-03-18T12:21:42.313Z,10.02
2019-03-18T12:22:42.308Z,10.01
2019-03-18T12:23:42.277Z,9.90
2019-03-18T12:24:42.257Z,9.90
2019-03-18T12:25:42.236Z,9.84
2019-03-18T12:26:42.223Z,9.83
2019-03-18T12:27:42.205Z,9.83
2019-03-18T12:28:42.184Z,9.64
2019-03-18T12:29:42.170Z,9.65
2019-03-18T12:30:42.147Z,9.91
2019-03-18T12:31:42.129Z,10.56
2019-03-18T12:32:42.109Z,11.03
2019-03-18T12:33:42.092Z,11.42
2019-03-18T12:34:42.069Z,11.73
2019-03-18T12:35:42.057Z,12.20
2019-03-18T12:36:42.036Z,12.39
2019-03-18T12:37:42.020Z,12.72
2019-03-18T12:38:41.998Z,12.67
2019-03-18T12:39:41.984Z,12.70
2019-03-18T12:40:41.961Z,13.10
2019-03-18T12:41:41.942Z,13.19
2019-03-18T12:42:41.934Z,13.08
2019-03-18T12:43:41.907Z,12.89
2019-03-18T12:44:41.892Z,12.90
2019-03-18T12:45:41.874Z,12.82
2019-03-18T12:46:41.858Z,12.75
2019-03-18T12:47:41.841Z,12.77
2019-03-18T12:48:41.823Z,12.35
2019-03-18T12:49:41.800Z,12.17
2019-03-18T12:50:55.307Z,11.98
2019-03-18T12:51:41.768Z,11.75
2019-03-18T12:52:41.748Z,11.55
2019-03-18T12:53:41.733Z,11.46
2019-03-18T12:54:41.716Z,11.46
2019-03-18T12:55:41.701Z,11.43
2019-03-18T12:56:41.675Z,11.10
2019-03-18T12:57:41.731Z,10.88
2019-03-18T12:58:41.637Z,10.41
2019-03-18T12:59:41.624Z,10.30
2019-03-18T13:00:41.615Z,9.99
2019-03-18T13:01:41.598Z,9.87
2019-03-18T13:02:41.568Z,9.74
2019-03-18T13:03:41.558Z,9.60
2019-03-18T13:04:41.533Z,9.57
2019-03-18T13:05:41.518Z,9.42
2019-03-18T13:06:41.503Z,9.36
2019-03-18T13:07:41.478Z,9.43
2019-03-18T13:08:41.461Z,9.33
2019-03-18T13:09:41.441Z,9.43
2019-03-18T13:10:41.432Z,9.40
2019-03-18T13:11:41.404Z,9.40
2019-03-18T13:12:41.388Z,9.31
2019-03-18T13:13:41.368Z,9.35
2019-03-18T13:14:41.345Z,9.23
2019-03-18T13:15:41.335Z,9.24
2019-03-18T13:16:41.315Z,9.13
2019-03-18T13:17:43.761Z,8.70